Time;durP1;ratioP1;P1;durP2;ratioP2;P2;SDS_P1;SDS_P2;PMS_P1;PMS_P2;Temp;Humidity;BMP_temperature;BMP_pressure;BME280_temperature;BME280_humidity;BME280_pressure;Samples;Min_cycle;Max_cycle;Signal;HPM_P1;HPM_P2
2023/07/20 00:05:02;;;;;;;2.30;1.00;;;;;;;23.22;42.50;101379.31;16102629;19;131075;-51
2023/07/20 00:10:24;;;;;;;2.17;0.90;;;;;;;23.21;42.66;101383.22;16100635;19;134236;-49
2023/07/20 00:15:46;;;;;;;1.77;0.85;;;;;;;23.19;42.85;101380.69;16104228;19;129742;-52
2023/07/20 00:21:08;;;;;;;2.92;1.13;;;;;;;23.19;42.29;101379.84;16101334;19;130057;-51
2023/07/20 00:26:30;;;;;;;3.05;1.15;;;;;;;23.17;42.62;101387.63;16105197;19;131023;-51
2023/07/20 00:31:52;;;;;;;3.15;0.90;;;;;;;23.17;42.61;101382.03;16106399;19;131964;-50
2023/07/20 00:37:14;;;;;;;0.80;0.75;;;;;;;23.16;42.85;101383.16;16102046;19;130056;-49
2023/07/20 00:42:36;;;;;;;1.48;0.80;;;;;;;23.15;42.49;101384.25;16112219;19;129707;-49
2023/07/20 00:47:58;;;;;;;1.40;0.80;;;;;;;23.15;42.70;101389.84;16117220;19;131389;-49
2023/07/20 00:53:20;;;;;;;1.75;0.93;;;;;;;23.14;42.74;101391.81;16110999;19;130978;-53
2023/07/20 00:58:42;;;;;;;1.95;1.13;;;;;;;23.13;42.91;101392.06;16115033;19;129507;-51
2023/07/20 01:04:04;;;;;;;1.67;0.70;;;;;;;23.13;42.73;101392.06;16115656;19;130400;-52
2023/07/20 01:09:37;;;;;;;1.83;0.90;;;;;;;23.13;42.70;101386.50;16112764;19;131382;-50
2023/07/20 01:14:59;;;;;;;2.58;0.90;;;;;;;23.11;42.35;101385.91;16110099;19;131291;-52
2023/07/20 01:20:23;;;;;;;1.83;0.88;;;;;;;23.10;43.00;101384.22;16120606;19;130766;-50
2023/07/20 01:26:22;;;;;;;1.50;0.90;;;;;;;23.12;42.58;101390.41;16110035;19;131614;-50
2023/07/20 01:31:50;;;;;;;1.52;0.70;;;;;;;23.08;43.08;101394.81;16114708;19;130797;-52
2023/07/20 01:37:12;;;;;;;1.98;0.70;;;;;;;23.08;42.64;101390.06;16114897;19;130472;-51
2023/07/20 01:42:34;;;;;;;1.48;0.82;;;;;;;23.07;42.92;101387.53;16115016;19;129432;-48
2023/07/20 01:47:56;;;;;;;1.20;0.77;;;;;;;23.05;42.64;101402.59;16114056;19;131072;-47
2023/07/20 01:53:20;;;;;;;1.00;0.70;;;;;;;23.05;42.68;101397.03;16111300;19;130645;-48
2023/07/20 01:58:42;;;;;;;1.15;0.77;;;;;;;23.03;42.82;101388.06;16109480;19;130843;-47
2023/07/20 02:04:04;;;;;;;1.55;0.85;;;;;;;23.04;42.39;101391.72;16113962;19;129658;-47
2023/07/20 02:09:25;;;;;;;1.05;0.80;;;;;;;23.02;42.76;101391.97;16105155;19;129540;-52
2023/07/20 02:14:47;;;;;;;1.55;0.80;;;;;;;23.02;42.54;101391.97;16115019;19;131732;-49
2023/07/20 02:20:10;;;;;;;1.25;0.77;;;;;;;23.02;42.82;101391.97;16111219;19;130651;-49
2023/07/20 02:25:32;;;;;;;1.10;0.63;;;;;;;23.02;42.73;101399.50;16116203;19;130809;-50
2023/07/20 02:30:54;;;;;;;1.05;0.70;;;;;;;23.01;42.89;101400.59;16107379;19;130804;-51
2023/07/20 02:36:16;;;;;;;1.48;0.77;;;;;;;22.99;42.84;101398.09;16109610;19;131465;-53
2023/07/20 02:41:38;;;;;;;1.38;0.70;;;;;;;23.00;42.72;101398.94;16110779;19;131048;-50
2023/07/20 02:47:00;;;;;;;1.52;0.55;;;;;;;22.98;42.71;101404.78;16108943;19;130286;-50
2023/07/20 02:52:23;;;;;;;1.20;0.65;;;;;;;22.97;42.75;101400.31;16107737;19;130911;-53
2023/07/20 02:57:45;;;;;;;1.10;0.70;;;;;;;22.97;42.79;101402.25;16107111;19;131152;-50
2023/07/20 03:03:09;;;;;;;1.00;0.70;;;;;;;22.95;42.83;101408.09;16104105;19;131332;-47
2023/07/20 03:08:31;;;;;;;1.23;0.75;;;;;;;22.94;42.87;101412.00;16107718;19;129938;-51
2023/07/20 03:13:54;;;;;;;1.63;0.90;;;;;;;22.94;42.87;101416.75;16106659;19;130902;-50
2023/07/20 03:19:16;;;;;;;0.77;0.60;;;;;;;22.94;42.74;101427.91;16101718;19;131381;-51
2023/07/20 03:24:37;;;;;;;0.77;0.60;;;;;;;22.92;42.87;101422.56;16105974;19;130018;-53
2023/07/20 03:29:59;;;;;;;1.42;0.68;;;;;;;22.91;43.14;101432.03;16106426;19;130456;-53
2023/07/20 03:35:22;;;;;;;1.17;0.73;;;;;;;22.89;42.86;101435.06;16101589;19;129532;-51
2023/07/20 03:40:54;;;;;;;1.85;0.70;;;;;;;22.91;42.83;101434.00;16109142;19;130893;-52
2023/07/20 03:46:16;;;;;;;1.45;0.73;;;;;;;22.88;43.15;101435.34;16110769;19;129872;-51
2023/07/20 03:51:38;;;;;;;0.60;0.60;;;;;;;22.87;42.88;101442.03;16109714;19;129790;-52
2023/07/20 03:57:00;;;;;;;2.05;0.70;;;;;;;22.86;42.77;101449.53;16109631;19;130568;-51
2023/07/20 04:02:22;;;;;;;1.35;0.60;;;;;;;22.85;43.07;101447.03;16106612;19;130105;-55
2023/07/20 04:07:44;;;;;;;0.73;0.60;;;;;;;22.85;42.93;101452.59;16107964;19;129873;-49
2023/07/20 04:13:07;;;;;;;1.10;0.45;;;;;;;22.84;42.83;101446.16;16102095;19;130654;-55
2023/07/20 04:18:29;;;;;;;1.05;0.70;;;;;;;22.84;42.84;101448.13;16113327;19;131482;-52
2023/07/20 04:23:50;;;;;;;0.98;0.68;;;;;;;22.83;42.71;101440.84;16116369;19;129767;-45
2023/07/20 04:29:13;;;;;;;1.35;0.90;;;;;;;22.82;42.99;101448.41;16113601;19;130635;-50
2023/07/20 04:34:37;;;;;;;1.35;0.90;;;;;;;22.82;42.70;101442.81;16114944;19;131215;-47
2023/07/20 04:39:59;;;;;;;2.60;0.90;;;;;;;22.82;42.81;101441.97;16117874;19;130571;-47
2023/07/20 04:45:22;;;;;;;0.98;0.70;;;;;;;22.81;42.75;101445.84;16114965;19;130238;-48
2023/07/20 04:50:45;;;;;;;1.15;0.70;;;;;;;22.81;42.78;101443.06;16120125;19;130727;-50
2023/07/20 04:56:08;;;;;;;0.90;0.60;;;;;;;22.80;42.64;101449.75;16115207;19;130353;-51
2023/07/20 05:01:30;;;;;;;2.13;0.70;;;;;;;22.81;42.47;101459.81;16113404;19;130538;-49
2023/07/20 05:06:52;;;;;;;2.33;0.60;;;;;;;22.80;42.68;101452.53;16114456;19;129846;-53
2023/07/20 05:12:13;;;;;;;0.68;0.50;;;;;;;22.79;42.89;101467.59;16113106;19;131021;-50
2023/07/20 05:17:35;;;;;;;0.70;0.65;;;;;;;22.78;42.80;101465.91;16113582;19;129383;-55
2023/07/20 05:22:57;;;;;;;0.98;0.63;;;;;;;22.77;42.86;101459.50;16116440;19;131314;-53
2023/07/20 05:28:19;;;;;;;1.33;0.70;;;;;;;22.77;42.75;101456.69;16116025;19;132695;-56
2023/07/20 05:33:41;;;;;;;1.52;0.80;;;;;;;22.77;42.96;101461.44;16119300;19;130011;-52
2023/07/20 05:39:03;;;;;;;1.13;0.60;;;;;;;22.78;43.00;101463.09;16115201;19;131087;-55
2023/07/20 05:44:25;;;;;;;0.75;0.70;;;;;;;22.77;42.67;101465.06;16119326;19;130351;-54
2023/07/20 05:49:47;;;;;;;2.55;0.60;;;;;;;22.76;42.47;101466.16;16110121;19;131233;-53
2023/07/20 05:55:09;;;;;;;1.65;0.55;;;;;;;22.76;42.89;101468.13;16114341;19;131058;-47
2023/07/20 06:00:31;;;;;;;2.92;1.20;;;;;;;22.76;42.76;101470.91;16108306;19;130509;-49
2023/07/20 06:05:59;;;;;;;2.35;1.20;;;;;;;22.77;42.91;101472.59;16113785;19;131185;-47
2023/07/20 06:11:21;;;;;;;1.63;0.90;;;;;;;22.74;42.82;101474.81;16109033;19;131003;-51
2023/07/20 06:16:43;;;;;;;1.65;0.90;;;;;;;22.73;42.89;101492.66;16113461;19;129827;-50
2023/07/20 06:22:05;;;;;;;0.88;0.75;;;;;;;22.73;43.09;101487.06;16111209;19;132072;-49
2023/07/20 06:27:27;;;;;;;1.52;1.00;;;;;;;22.73;42.78;101489.84;16109472;19;130136;-51
2023/07/20 06:32:52;;;;;;;1.88;1.20;;;;;;;22.73;42.63;101489.84;16112294;19;129727;-51
2023/07/20 06:38:14;;;;;;;2.35;1.15;;;;;;;22.73;42.74;101484.28;16109805;19;131334;-52
2023/07/20 06:43:39;;;;;;;3.15;0.70;;;;;;;22.72;42.80;101495.69;16112324;19;131354;-51
2023/07/20 06:49:06;;;;;;;0.95;0.73;;;;;;;22.73;42.83;101492.66;16113864;19;128926;-49
2023/07/20 06:54:32;;;;;;;0.93;0.70;;;;;;;22.72;43.16;101493.75;16109459;19;129692;-50
2023/07/20 06:59:56;;;;;;;0.90;0.70;;;;;;;22.74;43.10;101493.47;16109394;19;130127;-50
2023/07/20 07:05:18;;;;;;;2.35;0.80;;;;;;;22.73;42.68;101501.00;16098424;19;130833;-52
2023/07/20 07:10:43;;;;;;;1.08;0.55;;;;;;;22.80;42.74;101505.53;16099401;19;129918;-50
2023/07/20 07:16:05;;;;;;;0.80;0.50;;;;;;;22.83;42.67;101499.44;16105861;19;130397;-53
2023/07/20 07:21:30;;;;;;;1.73;0.70;;;;;;;22.87;42.26;101504.22;16110390;19;130205;-49
2023/07/20 07:26:52;;;;;;;1.40;0.70;;;;;;;22.99;42.65;101503.28;16109130;19;129616;-51
2023/07/20 07:32:15;;;;;;;2.33;0.70;;;;;;;23.06;42.43;101509.50;16106523;19;129313;-49
2023/07/20 07:37:37;;;;;;;1.02;0.73;;;;;;;23.09;42.17;101508.13;16109229;19;130342;-52
2023/07/20 07:43:18;;;;;;;4.45;0.90;;;;;;;23.11;42.20;101508.72;16108295;19;130408;-52
2023/07/20 07:48:40;;;;;;;3.03;0.70;;;;;;;23.12;42.37;101502.84;16112567;19;130983;-53
2023/07/20 07:54:02;;;;;;;0.80;0.57;;;;;;;23.12;42.75;101515.97;16115645;19;130130;-51
2023/07/20 07:59:24;;;;;;;2.45;0.73;;;;;;;23.13;42.09;101521.28;16118548;19;129264;-46
2023/07/20 08:04:46;;;;;;;2.38;0.88;;;;;;;23.15;41.98;101519.09;16121621;19;130364;-44
2023/07/20 08:10:08;;;;;;;0.88;0.70;;;;;;;23.24;42.16;101525.03;16122858;19;129573;-46
2023/07/20 08:15:30;;;;;;;1.58;0.80;;;;;;;23.32;42.04;101524.56;16120448;19;130427;-48
2023/07/20 08:20:52;;;;;;;1.77;0.80;;;;;;;23.42;41.81;101514.59;16118193;19;130903;-46
2023/07/20 08:26:14;;;;;;;1.77;0.82;;;;;;;23.50;41.81;101520.53;16120245;19;129783;-49
2023/07/20 08:31:36;;;;;;;1.75;1.00;;;;;;;23.60;41.55;101507.78;16118643;19;130948;-47
2023/07/20 08:36:58;;;;;;;1.65;0.75;;;;;;;23.57;41.45;101511.94;16121086;19;130470;-48
2023/07/20 08:42:22;;;;;;;3.95;0.80;;;;;;;23.60;41.44;101507.78;16119802;19;130019;-45
2023/07/20 08:47:48;;;;;;;3.17;1.13;;;;;;;23.62;41.36;101509.22;16122881;19;130833;-48
2023/07/20 08:53:10;;;;;;;3.45;0.77;;;;;;;23.65;41.12;101510.63;16120685;19;130112;-50
2023/07/20 08:58:34;;;;;;;3.03;0.70;;;;;;;23.68;41.46;101503.66;16120202;19;129398;-54
2023/07/20 09:03:57;;;;;;;1.70;0.80;;;;;;;23.71;41.01;101503.97;16116062;19;130759;-53
2023/07/20 09:09:19;;;;;;;1.23;0.55;;;;;;;23.71;40.91;101506.75;16119414;19;130193;-51
2023/07/20 09:14:44;;;;;;;1.05;0.70;;;;;;;23.68;40.91;101509.25;16121676;19;130651;-54
2023/07/20 09:20:10;;;;;;;0.90;0.52;;;;;;;23.61;41.21;101498.31;16113721;19;130085;-52
2023/07/20 09:25:32;;;;;;;2.35;0.80;;;;;;;23.62;41.06;101506.44;16118528;19;131081;-52
2023/07/20 09:30:56;;;;;;;1.50;0.70;;;;;;;23.59;41.19;101501.38;16106338;19;130597;-49
2023/07/20 09:36:19;;;;;;;0.63;0.50;;;;;;;23.68;41.02;101503.66;16118581;19;129675;-51
2023/07/20 09:42:02;;;;;;;0.70;0.50;;;;;;;23.72;40.76;101496.44;16112535;19;130379;-52
2023/07/20 09:47:29;;;;;;;2.58;0.60;;;;;;;23.77;40.51;101502.06;16121194;19;129711;-50
2023/07/20 09:52:53;;;;;;;1.30;0.80;;;;;;;23.73;40.66;101495.34;16118191;19;129803;-52
2023/07/20 09:58:18;;;;;;;4.45;0.77;;;;;;;23.69;40.94;101492.25;16116816;19;129937;-51
2023/07/20 10:03:45;;;;;;;0.60;0.60;;;;;;;23.66;41.29;101490.81;16117607;19;130474;-50
2023/07/20 10:09:09;;;;;;;1.10;0.63;;;;;;;23.62;41.12;101489.69;16115556;19;130149;-52
2023/07/20 10:14:38;;;;;;;0.77;0.60;;;;;;;23.59;41.04;101480.97;16111238;19;130153;-48
2023/07/20 10:20:03;;;;;;;0.60;0.50;;;;;;;23.56;40.97;101481.50;16112135;19;130470;-51
2023/07/20 10:25:25;;;;;;;1.30;0.60;;;;;;;23.53;41.26;101474.47;16111312;19;131342;-51
2023/07/20 10:30:47;;;;;;;1.63;0.60;;;;;;;23.51;41.35;101482.25;16112998;19;129620;-53
2023/07/20 10:36:12;;;;;;;4.15;0.90;;;;;;;23.50;40.78;101475.03;16113039;19;130969;-47
2023/07/20 10:41:35;;;;;;;4.70;0.93;;;;;;;23.53;41.44;101473.63;16116334;19;129563;-52
2023/07/20 10:47:02;;;;;;;7.53;0.85;;;;;;;23.57;41.03;101470.03;16116898;19;130169;-52
2023/07/20 10:52:26;;;;;;;4.78;0.82;;;;;;;23.55;41.36;101466.66;16114640;19;130341;-48
2023/07/20 10:58:10;;;;;;;2.40;0.70;;;;;;;23.58;41.28;101459.69;16110739;19;130934;-49
2023/07/20 11:03:34;;;;;;;4.25;0.70;;;;;;;23.57;41.25;101458.88;16116459;19;129680;-48
2023/07/20 11:09:14;;;;;;;4.63;0.90;;;;;;;23.60;41.32;101452.78;16115160;19;130850;-47
2023/07/20 11:14:40;;;;;;;4.75;0.75;;;;;;;23.59;41.47;101465.06;16113041;19;130354;-47
2023/07/20 11:20:03;;;;;;;3.78;1.17;;;;;;;23.59;41.49;101461.41;16110761;19;130733;-51
2023/07/20 11:25:36;;;;;;;5.13;0.90;;;;;;;23.60;41.50;101455.59;16112436;19;130799;-46
2023/07/20 11:30:58;;;;;;;4.93;1.10;;;;;;;23.62;41.46;101456.16;16111544;19;130238;-48
2023/07/20 11:36:20;;;;;;;4.75;1.00;;;;;;;23.63;41.39;101443.84;16112622;19;129535;-50
2023/07/20 11:41:50;;;;;;;7.38;1.02;;;;;;;23.64;41.40;101448.34;16114545;19;131124;-50
2023/07/20 11:47:12;;;;;;;4.80;0.90;;;;;;;23.64;41.40;101442.75;16107371;19;131089;-52
2023/07/20 11:52:35;;;;;;;6.70;1.10;;;;;;;23.68;41.17;101437.47;16109676;19;129508;-52
2023/07/20 11:58:07;;;;;;;3.53;1.20;;;;;;;23.66;41.40;101429.34;16104471;19;129651;-48
2023/07/20 12:03:29;;;;;;;11.63;1.02;;;;;;;23.64;41.50;101420.41;16107906;19;130195;-51
2023/07/20 12:08:58;;;;;;;2.00;0.70;;;;;;;23.63;41.32;101413.13;16107006;19;129628;-47
2023/07/20 12:14:20;;;;;;;8.00;0.60;;;;;;;23.64;41.37;101412.03;16109004;19;130527;-51
2023/07/20 12:19:42;;;;;;;2.45;0.90;;;;;;;23.66;41.32;101412.59;16111494;19;129616;-46
2023/07/20 12:25:08;;;;;;;4.15;0.80;;;;;;;23.66;41.45;101407.00;16109752;19;129851;-46
2023/07/20 12:30:30;;;;;;;3.13;0.88;;;;;;;23.66;41.18;101406.19;16106477;19;131781;-51
2023/07/20 12:35:55;;;;;;;3.85;1.08;;;;;;;23.65;41.16;101388.56;16106379;19;129920;-49
2023/07/20 12:41:18;;;;;;;1.98;0.75;;;;;;;23.64;41.17;101389.69;16118162;19;130740;-48
2023/07/20 12:46:40;;;;;;;3.60;0.88;;;;;;;23.65;41.16;101396.94;16119440;19;133370;-49
2023/07/20 12:52:02;;;;;;;1.90;0.80;;;;;;;23.64;41.10;101386.88;16120229;19;129532;-49
2023/07/20 12:57:24;;;;;;;3.00;0.80;;;;;;;23.62;41.15;101389.13;16121249;19;132419;-50
2023/07/20 13:02:46;;;;;;;5.63;0.80;;;;;;;23.60;41.09;101380.19;16123669;19;129747;-49
2023/07/20 13:08:08;;;;;;;4.90;0.75;;;;;;;23.58;41.48;101382.38;16117521;19;129905;-53
2023/07/20 13:13:33;;;;;;;3.95;0.80;;;;;;;23.58;41.09;101376.81;16122035;19;129281;-51
2023/07/20 13:18:57;;;;;;;1.63;0.50;;;;;;;23.57;41.28;101375.09;16122923;19;129893;-51
2023/07/20 13:24:19;;;;;;;3.58;0.70;;;;;;;23.55;40.88;101377.31;16121166;19;129466;-48
2023/07/20 13:29:41;;;;;;;2.67;0.60;;;;;;;23.53;41.12;101368.34;16118235;19;129465;-49
2023/07/20 13:35:03;;;;;;;1.60;0.60;;;;;;;23.49;41.26;101368.06;16118204;19;129676;-50
2023/07/20 13:40:25;;;;;;;2.45;0.63;;;;;;;23.48;41.02;101371.13;16116973;19;131008;-52
2023/07/20 13:45:47;;;;;;;1.75;0.60;;;;;;;23.46;41.34;101362.16;16117843;19;129537;-49
2023/07/20 13:51:10;;;;;;;1.77;0.50;;;;;;;23.43;41.36;101366.34;16114496;19;129514;-50
2023/07/20 13:56:32;;;;;;;1.60;0.75;;;;;;;23.43;41.29;101365.50;16118680;19;129447;-52
2023/07/20 14:01:54;;;;;;;4.97;0.55;;;;;;;23.40;41.39;101357.66;16110171;19;129993;-50
2023/07/20 14:07:37;;;;;;;4.22;0.60;;;;;;;23.38;41.33;101352.34;16116284;19;130778;-52
2023/07/20 14:12:59;;;;;;;2.22;0.60;;;;;;;23.38;41.21;101355.13;16113730;19;130452;-48
2023/07/20 14:18:20;;;;;;;2.40;0.55;;;;;;;23.37;41.45;101347.03;16114388;19;131083;-50
2023/07/20 14:23:45;;;;;;;3.28;0.50;;;;;;;23.37;41.34;101339.50;16116064;19;132028;-48
2023/07/20 14:29:07;;;;;;;1.10;0.60;;;;;;;23.37;41.59;101341.47;16116686;19;129319;-49
2023/07/20 14:34:33;;;;;;;1.10;0.40;;;;;;;23.35;41.43;101336.13;16113005;19;130345;-52
2023/07/20 14:40:00;;;;;;;2.10;0.50;;;;;;;23.33;41.34;101339.19;16116617;19;133714;-51
2023/07/20 14:45:22;;;;;;;2.97;0.50;;;;;;;23.31;41.20;101333.03;16111528;19;130022;-50
2023/07/20 14:50:47;;;;;;;0.93;0.47;;;;;;;23.30;41.41;101322.97;16111550;19;130403;-50
2023/07/20 14:56:08;;;;;;;1.85;0.50;;;;;;;23.31;41.52;101316.28;16111717;19;130300;-50
2023/07/20 15:01:30;;;;;;;0.88;0.40;;;;;;;23.31;41.43;101313.50;16112991;19;129518;-52
2023/07/20 15:06:54;;;;;;;1.88;0.60;;;;;;;23.29;41.33;101318.50;16114998;19;130660;-53
2023/07/20 15:12:16;;;;;;;2.05;0.60;;;;;;;23.30;41.35;101311.81;16109318;19;129490;-50
2023/07/20 15:17:40;;;;;;;1.48;0.43;;;;;;;23.29;41.18;101312.91;16106119;19;131022;-50
2023/07/20 15:23:02;;;;;;;2.42;0.73;;;;;;;23.30;41.17;101310.97;16109342;19;130273;-53
2023/07/20 15:28:24;;;;;;;1.92;0.52;;;;;;;23.30;41.00;101300.63;16105716;19;129849;-50
2023/07/20 15:33:46;;;;;;;2.38;0.80;;;;;;;23.31;41.15;101295.91;16109530;19;130785;-54
2023/07/20 15:39:08;;;;;;;1.10;0.50;;;;;;;23.31;41.30;101293.94;16107084;19;130783;-46
2023/07/20 15:44:30;;;;;;;3.47;1.10;;;;;;;23.33;41.50;101290.88;16105630;19;130981;-54
2023/07/20 15:49:52;;;;;;;8.98;1.75;;;;;;;23.32;41.28;101284.47;16103088;19;130431;-51
2023/07/20 15:55:14;;;;;;;10.77;2.97;;;;;;;23.34;41.29;101285.03;16109884;19;129859;-54
2023/07/20 16:00:36;;;;;;;17.15;3.53;;;;;;;23.36;41.40;101284.75;16110556;19;129774;-52
2023/07/20 16:05:58;;;;;;;23.63;5.07;;;;;;;23.36;41.62;101281.97;16112188;19;129617;-56
2023/07/20 16:11:23;;;;;;;15.85;3.97;;;;;;;23.37;41.62;101280.84;16113792;19;135880;-51
2023/07/20 16:16:48;;;;;;;15.55;3.72;;;;;;;23.34;41.55;101282.25;16122457;19;130998;-55
2023/07/20 16:22:11;;;;;;;18.17;3.72;;;;;;;23.33;41.61;101274.97;16126475;19;130862;-56
2023/07/20 16:27:33;;;;;;;12.68;3.78;;;;;;;23.33;41.28;101279.72;16123813;19;130041;-54
2023/07/20 16:32:56;;;;;;;11.30;3.20;;;;;;;23.33;41.40;101291.72;16112720;19;132083;-53
2023/07/20 16:38:18;;;;;;;9.25;2.60;;;;;;;23.29;41.06;101287.78;16121473;19;130268;-55
2023/07/20 16:43:40;;;;;;;17.25;2.45;;;;;;;23.28;40.88;101297.28;16091857;19;130722;-49
2023/07/20 16:49:07;;;;;;;13.65;2.50;;;;;;;23.30;41.12;101311.81;16116722;19;129631;-48
2023/07/20 16:54:29;;;;;;;14.43;2.58;;;;;;;23.34;40.90;101320.47;16123848;19;129751;-49
2023/07/20 16:59:51;;;;;;;9.20;2.30;;;;;;;23.38;40.73;101304.88;16120383;19;130019;-45
2023/07/20 17:05:13;;;;;;;10.35;2.25;;;;;;;23.41;40.51;101314.66;16121779;19;130708;-50
2023/07/20 17:10:36;;;;;;;12.32;2.35;;;;;;;23.44;40.89;101311.34;16119259;19;129852;-49
2023/07/20 17:15:58;;;;;;;10.27;2.40;;;;;;;23.43;40.51;101313.31;16121028;19;129436;-46
2023/07/20 17:21:21;;;;;;;8.52;2.20;;;;;;;23.46;40.95;101311.91;16119895;19;130464;-51
2023/07/20 17:26:43;;;;;;;8.20;1.88;;;;;;;23.47;40.74;101305.22;16117766;19;129373;-46
2023/07/20 17:32:06;;;;;;;9.20;1.75;;;;;;;23.48;40.81;101304.09;16117967;19;129452;-49
2023/07/20 17:37:28;;;;;;;11.13;1.95;;;;;;;23.49;40.86;101297.41;16038515;19;151326;-45
2023/07/20 17:43:10;;;;;;;7.63;2.13;;;;;;;23.50;40.93;101273.97;16120316;19;129216;-45
2023/07/20 17:48:33;;;;;;;5.72;1.52;;;;;;;23.51;40.71;101276.47;16119338;19;132005;-49
2023/07/20 17:53:55;;;;;;;9.18;1.95;;;;;;;23.50;41.07;101265.59;16118994;19;131578;-46
2023/07/20 17:59:17;;;;;;;4.20;1.38;;;;;;;23.49;41.05;101261.94;16118074;19;129526;-46
2023/07/20 18:04:39;;;;;;;5.30;1.85;;;;;;;23.49;41.04;101253.56;16116117;19;129460;-44
2023/07/20 18:10:03;;;;;;;4.60;1.50;;;;;;;23.50;41.31;101252.44;16115948;19;130870;-47
2023/07/20 18:15:25;;;;;;;8.95;1.60;;;;;;;23.48;40.87;101248.25;16113281;19;129658;-47
2023/07/20 18:20:47;;;;;;;7.63;1.85;;;;;;;23.48;41.12;101253.84;16113747;19;131226;-50
2023/07/20 18:26:08;;;;;;;9.63;1.90;;;;;;;23.47;41.33;101246.56;16114089;19;130464;-46
2023/07/20 18:31:30;;;;;;;3.95;1.45;;;;;;;23.45;41.27;101238.44;16111494;19;129346;-51
2023/07/20 18:36:52;;;;;;;9.55;1.65;;;;;;;23.42;40.90;101229.78;16112428;19;129291;-48
2023/07/20 18:42:15;;;;;;;6.15;1.40;;;;;;;23.40;40.78;101232.88;16112003;19;129660;-44
2023/07/20 18:47:36;;;;;;;7.35;1.60;;;;;;;23.35;40.55;101233.69;16113155;19;129219;-52
2023/07/20 18:53:00;;;;;;;2.60;1.15;;;;;;;23.34;40.72;101234.78;16115968;19;131007;-48
2023/07/20 18:58:22;;;;;;;3.00;1.08;;;;;;;23.32;40.21;101242.59;16114017;19;129384;-47
2023/07/20 19:03:44;;;;;;;3.67;1.20;;;;;;;23.31;39.94;101243.69;16109462;19;130680;-46
2023/07/20 19:09:06;;;;;;;3.05;1.02;;;;;;;23.29;39.67;101245.09;16109210;19;129575;-51
2023/07/20 19:14:28;;;;;;;5.05;0.93;;;;;;;23.25;39.91;101233.63;16110675;19;130538;-49
2023/07/20 19:19:51;;;;;;;2.53;0.80;;;;;;;23.21;40.25;101243.66;16111098;19;131802;-48
2023/07/20 19:25:13;;;;;;;12.32;0.90;;;;;;;23.19;40.00;101251.44;16112051;19;129649;-51
2023/07/20 19:30:35;;;;;;;13.48;1.60;;;;;;;23.26;40.15;101257.66;16108057;19;135738;-50
2023/07/20 19:35:57;;;;;;;6.05;0.90;;;;;;;23.34;40.09;101257.13;16103940;19;130251;-49
2023/07/20 19:41:19;;;;;;;2.35;0.93;;;;;;;23.41;39.91;101264.41;16105652;19;129553;-51
2023/07/20 19:46:41;;;;;;;5.25;0.75;;;;;;;23.42;39.76;101266.94;16103881;19;131476;-54
2023/07/20 19:52:03;;;;;;;5.05;0.90;;;;;;;23.37;40.11;101268.88;16108305;19;129787;-50
2023/07/20 19:57:25;;;;;;;5.82;1.13;;;;;;;23.31;40.21;101265.22;16109053;19;129925;-52
2023/07/20 20:02:51;;;;;;;4.13;0.95;;;;;;;23.28;40.51;101277.72;16105246;19;130158;-55
2023/07/20 20:08:15;;;;;;;4.97;1.10;;;;;;;23.25;40.64;101281.09;16105350;19;129775;-53
2023/07/20 20:13:37;;;;;;;4.18;0.88;;;;;;;23.22;40.47;101278.81;16108114;19;129206;-51
2023/07/20 20:19:00;;;;;;;4.72;1.30;;;;;;;23.19;40.43;101277.41;16108931;19;129642;-52
2023/07/20 20:24:22;;;;;;;6.47;1.25;;;;;;;23.17;40.63;101268.47;16094726;19;131592;-51
2023/07/20 20:29:44;;;;;;;4.40;1.00;;;;;;;23.15;40.99;101276.28;16104375;19;129763;-52
2023/07/20 20:35:06;;;;;;;2.72;0.65;;;;;;;23.15;40.78;101272.63;16100534;19;130811;-54
2023/07/20 20:40:28;;;;;;;6.55;0.88;;;;;;;23.12;40.75;101270.38;16102689;19;129957;-49
2023/07/20 20:45:50;;;;;;;4.18;0.80;;;;;;;23.10;40.78;101267.84;16101001;19;131201;-52
2023/07/20 20:51:13;;;;;;;2.10;0.70;;;;;;;23.10;40.69;101267.03;16101651;19;129679;-52
2023/07/20 20:56:36;;;;;;;3.75;0.75;;;;;;;23.08;40.81;101255.28;16103748;19;130107;-54
2023/07/20 21:01:58;;;;;;;1.65;0.80;;;;;;;23.05;41.07;101251.91;16115168;19;129467;-50
2023/07/20 21:07:20;;;;;;;3.95;0.90;;;;;;;23.04;41.17;101247.44;16116905;19;130377;-52
2023/07/20 21:12:42;;;;;;;2.97;1.08;;;;;;;23.03;40.88;101248.56;16114024;19;130618;-48
2023/07/20 21:18:04;;;;;;;3.88;0.73;;;;;;;23.03;40.69;101242.16;16117299;19;130355;-49
2023/07/20 21:23:26;;;;;;;3.08;0.70;;;;;;;23.02;41.03;101246.88;16115554;19;132800;-50
2023/07/20 21:28:48;;;;;;;2.10;0.80;;;;;;;23.02;40.99;101246.03;16113052;19;130567;-49
2023/07/20 21:34:10;;;;;;;7.10;0.75;;;;;;;23.01;41.06;101234.06;16117425;19;130981;-52
2023/07/20 21:39:32;;;;;;;3.78;0.90;;;;;;;23.00;40.80;101237.94;16112665;19;131846;-50
2023/07/20 21:44:54;;;;;;;5.50;1.00;;;;;;;22.99;40.94;101236.25;16115966;19;130731;-51
2023/07/20 21:50:18;;;;;;;2.53;0.90;;;;;;;22.98;41.19;101230.94;16113240;19;130405;-50
2023/07/20 21:55:41;;;;;;;5.17;0.63;;;;;;;22.97;41.01;101238.47;16120164;19;130969;-50
2023/07/20 22:01:03;;;;;;;4.40;0.63;;;;;;;22.96;40.94;101230.34;16101696;19;135316;-52
2023/07/20 22:06:46;;;;;;;2.67;0.80;;;;;;;22.96;41.23;101239.59;16112189;19;131105;-51
2023/07/20 22:12:12;;;;;;;1.75;0.60;;;;;;;22.95;41.36;101228.72;16110168;19;131173;-50
2023/07/20 22:17:35;;;;;;;1.35;0.65;;;;;;;22.93;41.15;101234.53;16110673;19;131084;-49
2023/07/20 22:23:01;;;;;;;1.77;0.70;;;;;;;22.92;41.04;101224.47;16104549;19;133682;-47
2023/07/20 22:28:22;;;;;;;;;;;;;;;22.87;41.01;101222.47;16108206;19;131955;-48
2023/07/20 22:33:44;;;;;;;2.05;0.50;;;;;;;22.88;41.32;101224.16;16114670;19;129495;-48
2023/07/20 22:39:06;;;;;;;3.00;0.80;;;;;;;22.87;41.15;101227.22;16115734;19;130693;-46
2023/07/20 22:44:29;;;;;;;2.38;0.70;;;;;;;22.87;41.22;101227.22;16117084;19;129573;-52
2023/07/20 22:49:51;;;;;;;1.08;0.70;;;;;;;22.86;41.35;101222.75;16111563;19;130069;-52
2023/07/20 22:55:13;;;;;;;2.17;0.50;;;;;;;22.85;41.34;101224.69;16113173;19;130284;-52
2023/07/20 23:00:35;;;;;;;0.80;0.63;;;;;;;22.84;41.54;101223.00;16108875;19;129895;-49
2023/07/20 23:05:57;;;;;;;3.22;0.70;;;;;;;22.84;41.15;101222.16;16109901;19;129696;-50
2023/07/20 23:11:18;;;;;;;1.10;0.68;;;;;;;22.83;41.43;101226.06;16110852;19;129500;-51
2023/07/20 23:16:41;;;;;;;2.95;0.50;;;;;;;22.82;41.41;101218.81;16111733;19;129524;-51
2023/07/20 23:22:03;;;;;;;0.75;0.55;;;;;;;22.81;41.42;101222.69;16109149;19;129637;-52
2023/07/20 23:27:26;;;;;;;1.00;0.55;;;;;;;22.79;41.36;101217.41;16102047;19;131045;-53
2023/07/20 23:32:50;;;;;;;2.20;0.50;;;;;;;22.80;41.10;101209.84;16107369;19;131133;-52
2023/07/20 23:38:12;;;;;;;0.50;0.40;;;;;;;22.79;41.08;101213.75;16108880;19;131133;-51
2023/07/20 23:43:35;;;;;;;0.88;0.50;;;;;;;22.78;41.53;101204.56;16112392;19;129691;-50
2023/07/20 23:49:00;;;;;;;3.35;0.63;;;;;;;22.77;41.55;101204.84;16115926;19;130445;-55
2023/07/20 23:54:23;;;;;;;1.77;0.60;;;;;;;22.75;41.45;101205.09;16104687;19;130629;-50
2023/07/20 23:59:44;;;;;;;0.95;0.50;;;;;;;22.76;41.47;101197.56;16103572;19;129783;-51
